Time;durP1;ratioP1;P1;durP2;ratioP2;P2;SDS_P1;SDS_P2;PMS_P1;PMS_P2;Temp;Humidity;BMP_temperature;BMP_pressure;BME280_temperature;BME280_humidity;BME280_pressure;Samples;Min_cycle;Max_cycle;Signal;HPM_P1;HPM_P2
2023/05/13 00:01:12;;;;;;;68.38;47.25;;;13.70;88.00;;;;;;5001456;28;20455;-75
2023/05/13 00:03:37;;;;;;;61.45;46.13;;;13.70;88.30;;;;;;5003157;28;20029;-75
2023/05/13 00:06:03;;;;;;;65.05;49.80;;;13.70;88.30;;;;;;4995218;28;20046;-75
2023/05/13 00:08:29;;;;;;;68.35;50.60;;;13.60;88.40;;;;;;4988882;28;20530;-75
2023/05/13 00:10:54;;;;;;;75.15;50.40;;;13.60;88.60;;;;;;4995445;28;20038;-75
2023/05/13 00:13:20;;;;;;;58.97;47.83;;;13.60;88.80;;;;;;4998463;28;20026;-75
2023/05/13 00:15:46;;;;;;;61.22;47.83;;;13.50;88.90;;;;;;5001317;28;20034;-74
2023/05/13 00:18:11;;;;;;;63.47;50.13;;;13.40;89.00;;;;;;4991397;28;20034;-73
2023/05/13 00:20:37;;;;;;;62.85;46.30;;;13.40;89.10;;;;;;5002133;28;20044;-74
2023/05/13 00:23:03;;;;;;;68.40;50.03;;;13.30;89.10;;;;;;5001645;28;20095;-75
2023/05/13 00:25:28;;;;;;;67.63;52.85;;;13.40;89.20;;;;;;5000759;28;20030;-76
2023/05/13 00:27:54;;;;;;;67.93;50.45;;;13.30;89.30;;;;;;5001919;28;20049;-76
2023/05/13 00:30:20;;;;;;;71.68;50.95;;;13.20;89.40;;;;;;5002074;28;20026;-75
2023/05/13 00:32:45;;;;;;;72.13;50.50;;;13.20;89.60;;;;;;5002311;28;20120;-76
2023/05/13 00:35:11;;;;;;;74.07;52.40;;;13.20;89.60;;;;;;5001866;28;20018;-76
2023/05/13 00:37:37;;;;;;;71.80;52.35;;;13.10;89.70;;;;;;5001420;28;20084;-76
2023/05/13 00:40:03;;;;;;;65.00;51.58;;;13.10;89.90;;;;;;5001888;28;20017;-76
2023/05/13 00:42:29;;;;;;;78.57;54.78;;;13.10;89.90;;;;;;4999221;28;20040;-76
2023/05/13 00:44:55;;;;;;;71.97;53.25;;;13.10;89.90;;;;;;5002841;28;20034;-76
2023/05/13 00:47:21;;;;;;;71.43;53.03;;;13.10;90.00;;;;;;4979415;28;20607;-75
2023/05/13 00:49:47;;;;;;;70.63;54.45;;;13.10;90.10;;;;;;4999132;28;20339;-76
2023/05/13 00:52:12;;;;;;;71.35;52.20;;;13.10;90.10;;;;;;4998604;28;20057;-76
2023/05/13 00:54:38;;;;;;;69.00;52.60;;;13.00;90.10;;;;;;5001553;28;20025;-75
2023/05/13 00:57:04;;;;;;;70.22;54.03;;;13.00;90.20;;;;;;4999359;28;20030;-75
2023/05/13 00:59:30;;;;;;;69.13;52.45;;;13.00;90.30;;;;;;5000251;28;20052;-76
2023/05/13 01:02:14;;;;;;;71.18;52.35;;;13.00;90.30;;;;;;4999701;28;20042;-75
2023/05/13 01:05:00;;;;;;;65.40;52.37;;;13.00;90.30;;;;;;4996673;28;20057;-75
2023/05/13 01:07:38;;;;;;;71.60;53.70;;;13.00;90.20;;;;;;4960475;28;20296;-74
2023/05/13 01:10:43;;;;;;;72.35;52.80;;;13.00;90.10;;;;;;4997599;28;20033;-75
2023/05/13 01:13:12;;;;;;;69.82;51.00;;;12.90;90.30;;;;;;4998624;28;20041;-76
2023/05/13 01:15:55;;;;;;;68.43;50.05;;;12.90;90.30;;;;;;5000538;28;20036;-75
2023/05/13 01:18:39;;;;;;;68.22;51.25;;;12.90;90.40;;;;;;5004289;28;20052;-75
2023/05/13 01:21:06;;;;;;;72.15;53.10;;;12.90;90.30;;;;;;4988784;28;20046;-75
2023/05/13 01:23:32;;;;;;;76.55;54.10;;;12.90;90.40;;;;;;5004456;28;20049;-75
2023/05/13 01:25:57;;;;;;;69.25;50.92;;;12.90;90.50;;;;;;5005291;28;20061;-75
2023/05/13 01:28:23;;;;;;;77.22;54.72;;;12.90;90.50;;;;;;5006734;28;20030;-74
2023/05/13 01:30:49;;;;;;;71.57;54.03;;;12.90;90.50;;;;;;5002779;28;20877;-75
2023/05/13 01:33:16;;;;;;;71.82;53.47;;;12.90;90.50;;;;;;5006032;28;20040;-76
2023/05/13 01:35:42;;;;;;;75.40;54.10;;;12.80;90.70;;;;;;5003600;28;20033;-76
2023/05/13 01:38:09;;;;;;;76.85;52.47;;;12.80;90.80;;;;;;5005513;28;20022;-76
2023/05/13 01:40:36;;;;;;;71.75;54.40;;;12.70;90.90;;;;;;5002567;28;20054;-76
2023/05/13 01:43:01;;;;;;;78.32;54.10;;;12.70;90.90;;;;;;4987275;28;20411;-76
2023/05/13 01:45:28;;;;;;;68.07;51.50;;;12.70;91.00;;;;;;5003574;28;20033;-76
2023/05/13 01:47:54;;;;;;;72.60;53.50;;;12.70;91.00;;;;;;5003608;28;20048;-76
2023/05/13 01:50:20;;;;;;;75.15;52.53;;;12.70;91.00;;;;;;5004644;28;20030;-76
2023/05/13 01:52:46;;;;;;;72.40;51.20;;;12.70;91.10;;;;;;5002187;28;20132;-76
2023/05/13 01:55:11;;;;;;;83.10;55.33;;;12.70;91.20;;;;;;5004036;28;20267;-76
2023/05/13 01:57:37;;;;;;;76.85;55.33;;;12.60;91.20;;;;;;5005168;28;20038;-76
2023/05/13 02:00:04;;;;;;;71.72;54.70;;;12.60;91.30;;;;;;5003611;28;20436;-77
2023/05/13 02:02:30;;;;;;;75.10;55.40;;;12.60;91.50;;;;;;4999708;28;22173;-76
2023/05/13 02:04:55;;;;;;;80.18;55.90;;;12.60;91.50;;;;;;4999394;28;20023;-76
2023/05/13 02:07:21;;;;;;;76.38;55.75;;;12.60;91.70;;;;;;5000812;28;20423;-76
2023/05/13 02:09:47;;;;;;;71.40;54.70;;;12.50;91.70;;;;;;5001434;28;20048;-76
2023/05/13 02:12:12;;;;;;;83.18;58.33;;;12.50;91.70;;;;;;5003289;28;20053;-76
2023/05/13 02:14:38;;;;;;;82.20;60.17;;;12.50;91.80;;;;;;5004964;28;20537;-76
2023/05/13 02:17:04;;;;;;;83.75;58.53;;;12.50;91.80;;;;;;4986284;28;20061;-75
2023/05/13 02:19:29;;;;;;;82.78;62.50;;;12.50;91.90;;;;;;5003690;28;20030;-77
2023/05/13 02:21:55;;;;;;;80.28;59.08;;;12.50;92.00;;;;;;5004810;28;20057;-77
2023/05/13 02:24:21;;;;;;;80.05;59.75;;;12.40;92.10;;;;;;5002233;28;20637;-77
2023/05/13 02:26:46;;;;;;;83.38;61.63;;;12.40;92.00;;;;;;5003062;28;20498;-76
2023/05/13 02:29:12;;;;;;;76.82;61.00;;;12.40;92.00;;;;;;5004042;28;20041;-78
2023/05/13 02:31:40;;;;;;;81.55;61.22;;;12.40;92.20;;;;;;5003721;28;20034;-77
2023/05/13 02:34:05;;;;;;;87.35;60.75;;;12.30;92.30;;;;;;5005027;28;20022;-76
2023/05/13 02:36:31;;;;;;;85.45;63.03;;;12.30;92.40;;;;;;5000512;28;20041;-77
2023/05/13 02:38:57;;;;;;;84.70;64.50;;;12.30;92.40;;;;;;4980504;28;20033;-77
2023/05/13 02:41:23;;;;;;;82.00;63.83;;;12.30;92.40;;;;;;4997097;28;20510;-76
2023/05/13 02:43:48;;;;;;;93.57;64.47;;;12.30;92.50;;;;;;5002008;28;20034;-76
2023/05/13 02:46:14;;;;;;;91.68;64.80;;;12.30;92.60;;;;;;5001925;28;20069;-75
2023/05/13 02:48:40;;;;;;;94.30;66.43;;;12.30;92.60;;;;;;5001138;28;20053;-76
2023/05/13 02:51:05;;;;;;;86.47;65.78;;;12.30;92.70;;;;;;5002071;28;20459;-76
2023/05/13 02:53:31;;;;;;;89.53;65.15;;;12.20;92.80;;;;;;5004293;28;20096;-76
2023/05/13 02:55:56;;;;;;;87.75;63.10;;;12.30;92.80;;;;;;5002385;28;20026;-75
2023/05/13 02:58:22;;;;;;;85.28;65.95;;;12.20;92.80;;;;;;4984162;28;20454;-77
2023/05/13 03:00:48;;;;;;;85.75;64.95;;;12.20;92.90;;;;;;5003243;28;20687;-75
2023/05/13 03:03:13;;;;;;;87.47;65.68;;;12.20;92.90;;;;;;5004422;28;20057;-76
2023/05/13 03:05:39;;;;;;;89.43;66.55;;;12.20;92.90;;;;;;4999493;28;20057;-74
2023/05/13 03:08:05;;;;;;;90.63;61.70;;;12.20;92.90;;;;;;5001816;28;20601;-76
2023/05/13 03:10:30;;;;;;;86.15;63.33;;;12.20;93.00;;;;;;5001014;28;20026;-76
2023/05/13 03:12:56;;;;;;;88.78;66.03;;;12.20;93.00;;;;;;5000623;28;20115;-76
2023/05/13 03:15:22;;;;;;;84.38;61.67;;;12.20;93.00;;;;;;5003492;28;20029;-76
2023/05/13 03:17:47;;;;;;;77.18;62.67;;;12.20;93.00;;;;;;5003572;28;20615;-77
2023/05/13 03:20:13;;;;;;;89.35;63.70;;;12.10;93.10;;;;;;5001791;28;20124;-77
2023/05/13 03:22:39;;;;;;;85.32;63.97;;;12.20;93.10;;;;;;4998713;28;20053;-74
2023/05/13 03:25:06;;;;;;;86.38;64.57;;;12.10;93.10;;;;;;5000949;28;20037;-74
2023/05/13 03:27:31;;;;;;;84.43;60.53;;;12.10;93.20;;;;;;4985234;28;20072;-76
2023/05/13 03:29:57;;;;;;;80.30;62.05;;;12.20;93.20;;;;;;5002045;28;20034;-77
2023/05/13 03:32:24;;;;;;;82.80;64.28;;;12.20;93.20;;;;;;5001850;28;20042;-76
2023/05/13 03:34:50;;;;;;;79.60;59.88;;;12.20;93.20;;;;;;5003345;28;20034;-77
2023/05/13 03:37:16;;;;;;;78.32;61.15;;;12.20;93.10;;;;;;5002345;28;20034;-76
2023/05/13 03:39:41;;;;;;;83.55;64.50;;;12.20;93.10;;;;;;4999747;28;20485;-77
2023/05/13 03:42:07;;;;;;;87.97;63.08;;;12.20;93.10;;;;;;4998891;28;20030;-76
2023/05/13 03:44:33;;;;;;;87.80;64.10;;;12.20;93.10;;;;;;5002145;28;20315;-75
2023/05/13 03:46:58;;;;;;;82.07;63.67;;;12.30;93.10;;;;;;5002495;28;20042;-77
2023/05/13 03:49:24;;;;;;;83.53;63.45;;;12.30;93.10;;;;;;5001729;28;20128;-76
2023/05/13 03:51:50;;;;;;;82.32;62.33;;;12.30;93.20;;;;;;4998618;28;20030;-76
2023/05/13 03:54:16;;;;;;;83.03;63.10;;;12.30;93.20;;;;;;5001960;28;20406;-76
2023/05/13 03:56:41;;;;;;;83.15;62.13;;;12.30;93.30;;;;;;5002488;28;20610;-77
2023/05/13 03:59:07;;;;;;;83.03;62.05;;;12.40;93.30;;;;;;5002123;28;20137;-76
2023/05/13 04:01:34;;;;;;;82.63;62.30;;;12.40;93.30;;;;;;5000713;28;20076;-76
2023/05/13 04:04:00;;;;;;;76.85;59.08;;;12.40;93.30;;;;;;5003033;28;20025;-76
2023/05/13 04:06:25;;;;;;;78.53;58.60;;;12.40;93.30;;;;;;4999154;28;20516;-77
2023/05/13 04:08:51;;;;;;;78.82;59.92;;;12.40;93.30;;;;;;5003038;28;20476;-77
2023/05/13 04:11:17;;;;;;;79.32;60.13;;;12.40;93.30;;;;;;4997784;28;20061;-76
2023/05/13 04:13:44;;;;;;;80.05;57.25;;;12.50;93.20;;;;;;5001789;28;20026;-76
2023/05/13 04:16:10;;;;;;;79.68;58.97;;;12.40;93.10;;;;;;5000524;28;20541;-76
2023/05/13 04:18:36;;;;;;;73.13;56.40;;;12.50;93.10;;;;;;4998946;28;20029;-76
2023/05/13 04:21:08;;;;;;;78.22;57.45;;;12.50;93.10;;;;;;5000217;28;20041;-75
2023/05/13 04:23:34;;;;;;;73.57;54.40;;;12.50;93.00;;;;;;5001211;28;20068;-76
2023/05/13 04:26:00;;;;;;;74.63;54.00;;;12.60;92.90;;;;;;5000536;28;20061;-76
2023/05/13 04:28:25;;;;;;;74.35;54.13;;;12.60;92.90;;;;;;5002434;28;20044;-75
2023/05/13 04:30:51;;;;;;;75.18;55.22;;;12.60;92.70;;;;;;5001254;28;20548;-75
2023/05/13 04:33:17;;;;;;;67.22;53.35;;;12.60;92.70;;;;;;5002834;28;20022;-76
2023/05/13 04:35:43;;;;;;;69.18;52.95;;;12.60;92.60;;;;;;4988184;28;20032;-76
2023/05/13 04:38:09;;;;;;;71.70;53.20;;;12.60;92.50;;;;;;4999096;28;20022;-76
2023/05/13 04:40:34;;;;;;;65.13;50.67;;;12.60;92.30;;;;;;4998883;28;20033;-76
2023/05/13 04:43:00;;;;;;;64.18;51.38;;;12.60;92.30;;;;;;5000785;28;20242;-76
2023/05/13 04:45:26;;;;;;;69.20;50.72;;;12.70;92.20;;;;;;4999218;28;20108;-75
2023/05/13 04:47:51;;;;;;;69.93;50.92;;;12.70;92.20;;;;;;4999624;28;20115;-75
2023/05/13 04:50:17;;;;;;;65.10;50.67;;;12.70;92.10;;;;;;5002135;28;20026;-76
2023/05/13 04:52:43;;;;;;;68.70;49.83;;;12.70;91.90;;;;;;5003856;28;20034;-74
2023/05/13 04:55:09;;;;;;;63.70;47.45;;;12.70;91.80;;;;;;5002748;28;20656;-76
2023/05/13 04:57:35;;;;;;;70.65;49.58;;;12.70;91.70;;;;;;5006548;28;20037;-75
2023/05/13 05:00:02;;;;;;;64.20;48.42;;;12.80;91.50;;;;;;4986090;28;20095;-75
2023/05/13 05:02:31;;;;;;;62.58;47.17;;;12.90;91.40;;;;;;5005554;28;20034;-76
2023/05/13 05:04:57;;;;;;;58.83;45.35;;;13.00;91.10;;;;;;5006365;28;20400;-75
2023/05/13 05:07:23;;;;;;;55.47;46.08;;;13.00;91.00;;;;;;5004703;28;20045;-76
2023/05/13 05:09:48;;;;;;;60.03;45.03;;;13.10;90.80;;;;;;5002382;28;20056;-76
2023/05/13 05:12:14;;;;;;;57.35;43.88;;;13.10;90.60;;;;;;5002953;28;20524;-75
2023/05/13 05:14:40;;;;;;;58.15;44.33;;;13.20;90.40;;;;;;5006014;28;20097;-76
2023/05/13 05:17:06;;;;;;;51.38;40.78;;;13.40;90.00;;;;;;5002638;28;20763;-76
2023/05/13 05:19:32;;;;;;;49.70;37.50;;;13.90;89.30;;;;;;5003896;28;20061;-75
2023/05/13 05:21:58;;;;;;;45.63;33.15;;;14.60;87.50;;;;;;5001449;28;20076;-76
2023/05/13 05:24:23;;;;;;;44.25;32.80;;;14.80;85.40;;;;;;5005015;28;20029;-75
2023/05/13 05:26:49;;;;;;;38.40;29.15;;;15.00;84.10;;;;;;4999752;28;20510;-75
2023/05/13 05:29:15;;;;;;;39.17;30.27;;;15.40;83.10;;;;;;5004299;28;20526;-75
2023/05/13 05:31:40;;;;;;;36.45;28.55;;;15.50;81.60;;;;;;5001357;28;20050;-76
2023/05/13 05:34:06;;;;;;;38.30;29.05;;;15.40;81.30;;;;;;5004895;28;20394;-75
2023/05/13 05:36:32;;;;;;;34.28;28.52;;;15.10;82.00;;;;;;5004535;28;20640;-74
2023/05/13 05:38:57;;;;;;;42.03;31.17;;;14.80;83.00;;;;;;5005016;28;20113;-74
2023/05/13 05:41:23;;;;;;;36.05;29.05;;;14.60;83.90;;;;;;5005017;28;20054;-75
2023/05/13 05:43:49;;;;;;;37.03;28.00;;;15.00;83.50;;;;;;5005580;28;20033;-74
2023/05/13 05:46:15;;;;;;;36.00;26.33;;;15.20;81.80;;;;;;4985586;28;20037;-77
2023/05/13 05:48:41;;;;;;;39.17;27.17;;;15.30;81.40;;;;;;5004796;28;20049;-76
2023/05/13 05:51:06;;;;;;;40.25;27.10;;;15.40;81.30;;;;;;5004424;28;20563;-78
2023/05/13 05:53:33;;;;;;;41.38;27.98;;;15.50;81.00;;;;;;5003010;28;20025;-76
2023/05/13 05:55:59;;;;;;;39.30;27.98;;;15.20;81.10;;;;;;5004776;28;20036;-76
2023/05/13 05:58:25;;;;;;;41.45;29.42;;;14.90;81.70;;;;;;5004352;28;20375;-76
2023/05/13 06:00:53;;;;;;;37.35;28.13;;;14.60;83.10;;;;;;5002166;28;20057;-76
2023/05/13 06:03:20;;;;;;;37.00;28.35;;;14.40;84.00;;;;;;5006378;28;20026;-76
2023/05/13 06:05:45;;;;;;;41.58;27.38;;;14.20;84.40;;;;;;5001096;28;20030;-76
2023/05/13 06:08:11;;;;;;;40.88;28.02;;;14.10;84.40;;;;;;5004356;28;20080;-76
2023/05/13 06:10:37;;;;;;;41.00;29.95;;;14.10;84.60;;;;;;5002333;28;20076;-77
2023/05/13 06:13:03;;;;;;;36.25;28.65;;;14.10;84.80;;;;;;5004453;28;20026;-76
2023/05/13 06:15:29;;;;;;;39.10;29.48;;;14.00;85.00;;;;;;5003357;28;20033;-76
2023/05/13 06:17:55;;;;;;;42.35;29.17;;;14.00;85.10;;;;;;5003695;28;20113;-76
2023/05/13 06:20:21;;;;;;;36.45;28.30;;;13.90;85.10;;;;;;5002553;28;20052;-76
2023/05/13 06:22:47;;;;;;;31.58;26.70;;;13.90;84.60;;;;;;4988302;28;20828;-76
2023/05/13 06:25:13;;;;;;;38.45;28.30;;;14.00;84.90;;;;;;5009104;28;20037;-77
2023/05/13 06:27:38;;;;;;;37.33;26.88;;;14.00;84.80;;;;;;4999853;28;20040;-79
2023/05/13 06:30:05;;;;;;;40.50;29.20;;;14.00;84.60;;;;;;5004242;28;20537;-76
2023/05/13 06:32:31;;;;;;;41.88;28.38;;;14.10;84.30;;;;;;5005666;28;20391;-74
2023/05/13 06:34:57;;;;;;;35.38;26.88;;;14.10;84.40;;;;;;5005199;28;20030;-74
2023/05/13 06:37:22;;;;;;;39.35;27.40;;;14.30;83.80;;;;;;5000144;28;20037;-75
2023/05/13 06:39:48;;;;;;;35.25;26.55;;;14.60;84.10;;;;;;5003452;28;20870;-75
2023/05/13 06:42:14;;;;;;;36.55;25.35;;;14.80;83.20;;;;;;5001882;28;20529;-74
2023/05/13 06:44:39;;;;;;;41.80;25.30;;;15.00;82.90;;;;;;5000278;28;20055;-75
2023/05/13 06:47:06;;;;;;;33.92;24.45;;;15.20;81.20;;;;;;4984869;28;20053;-76
2023/05/13 06:49:32;;;;;;;37.10;24.58;;;15.40;81.90;;;;;;5002238;28;20038;-74
2023/05/13 06:51:58;;;;;;;36.03;25.63;;;15.40;80.90;;;;;;5001766;28;20033;-74
2023/05/13 06:54:25;;;;;;;37.65;24.23;;;15.60;80.80;;;;;;5005153;28;20037;-74
2023/05/13 06:56:51;;;;;;;33.85;21.17;;;15.70;79.60;;;;;;4986850;28;20607;-74
2023/05/13 06:59:16;;;;;;;31.20;21.92;;;15.80;78.60;;;;;;5003167;28;20079;-74
2023/05/13 07:01:43;;;;;;;34.45;22.50;;;15.70;77.90;;;;;;4998723;28;20046;-74
2023/05/13 07:04:08;;;;;;;31.60;22.42;;;15.90;77.90;;;;;;5002921;28;20478;-74
2023/05/13 07:06:34;;;;;;;25.10;19.92;;;16.00;77.90;;;;;;5003035;28;20302;-74
2023/05/13 07:09:00;;;;;;;30.77;19.25;;;15.90;77.00;;;;;;4999062;28;20040;-74
2023/05/13 07:11:27;;;;;;;26.10;19.05;;;15.90;76.60;;;;;;5000164;28;20050;-74
2023/05/13 07:13:53;;;;;;;29.48;20.17;;;16.10;76.70;;;;;;4997140;28;20018;-74
2023/05/13 07:16:19;;;;;;;30.13;19.48;;;16.10;76.30;;;;;;4974629;28;20091;-73
2023/05/13 07:18:45;;;;;;;29.73;20.13;;;16.30;76.40;;;;;;4999675;28;20045;-75
2023/05/13 07:21:10;;;;;;;24.80;19.63;;;16.40;76.50;;;;;;4997997;28;20037;-75
2023/05/13 07:23:36;;;;;;;26.98;19.58;;;16.40;75.80;;;;;;4999246;28;20031;-73
2023/05/13 07:26:02;;;;;;;28.17;19.05;;;16.40;75.00;;;;;;4999705;28;20050;-75
2023/05/13 07:28:27;;;;;;;28.00;19.50;;;16.50;75.00;;;;;;4997120;28;20032;-76
2023/05/13 07:30:53;;;;;;;30.88;19.55;;;16.60;75.90;;;;;;4998669;28;20045;-76
2023/05/13 07:33:19;;;;;;;23.35;18.45;;;16.80;75.00;;;;;;4997436;28;20491;-75
2023/05/13 07:35:45;;;;;;;26.67;18.42;;;17.00;74.90;;;;;;4999192;28;20434;-76
2023/05/13 07:38:11;;;;;;;28.25;19.00;;;16.90;73.40;;;;;;5000835;28;20398;-75
2023/05/13 07:40:37;;;;;;;26.05;18.23;;;17.00;73.20;;;;;;4996481;28;20068;-76
2023/05/13 07:43:02;;;;;;;27.15;16.52;;;17.00;73.50;;;;;;4995793;28;20145;-76
2023/05/13 07:45:28;;;;;;;23.67;16.33;;;17.10;73.70;;;;;;4996932;28;20455;-75
2023/05/13 07:47:54;;;;;;;25.80;17.63;;;17.10;72.50;;;;;;5000812;28;20100;-75
2023/05/13 07:50:19;;;;;;;23.40;17.48;;;17.00;72.40;;;;;;4985448;28;20121;-76
2023/05/13 07:52:47;;;;;;;27.25;16.60;;;17.10;73.40;;;;;;4997357;28;20176;-75
2023/05/13 07:55:14;;;;;;;23.33;16.75;;;17.30;73.10;;;;;;4998093;28;20755;-76
2023/05/13 07:57:40;;;;;;;28.88;17.05;;;17.40;72.70;;;;;;4995628;28;20046;-74
2023/05/13 08:00:06;;;;;;;24.63;16.50;;;17.50;72.60;;;;;;5001809;28;20058;-80
2023/05/13 08:02:33;;;;;;;28.65;18.25;;;17.70;71.70;;;;;;4997827;28;20050;-74
2023/05/13 08:04:59;;;;;;;28.77;17.05;;;17.60;71.30;;;;;;5000234;28;20022;-75
2023/05/13 08:07:25;;;;;;;21.08;15.18;;;17.60;71.00;;;;;;5001480;28;20704;-74
2023/05/13 08:09:51;;;;;;;24.73;16.42;;;17.60;71.60;;;;;;4997290;28;20029;-75
2023/05/13 08:12:17;;;;;;;22.80;15.75;;;17.70;71.20;;;;;;5000659;28;20056;-75
2023/05/13 08:14:42;;;;;;;26.58;16.73;;;17.80;71.00;;;;;;5001926;28;20374;-74
2023/05/13 08:17:08;;;;;;;22.10;16.00;;;17.90;71.00;;;;;;5000201;28;20042;-75
2023/05/13 08:19:35;;;;;;;28.02;17.27;;;18.10;70.90;;;;;;5002039;28;20057;-74
2023/05/13 08:22:01;;;;;;;25.73;16.52;;;18.10;70.40;;;;;;5001639;28;20037;-74
2023/05/13 08:24:26;;;;;;;19.85;15.65;;;18.30;69.70;;;;;;4998254;28;20038;-75
2023/05/13 08:26:52;;;;;;;32.03;16.83;;;18.40;70.30;;;;;;4999847;28;20091;-75
2023/05/13 08:29:17;;;;;;;23.02;15.48;;;18.40;69.20;;;;;;5000601;28;20045;-75
2023/05/13 08:31:43;;;;;;;25.88;16.05;;;18.50;69.60;;;;;;5000739;28;20160;-75
2023/05/13 08:34:09;;;;;;;28.95;15.95;;;18.50;69.30;;;;;;5001378;28;20022;-75
2023/05/13 08:36:34;;;;;;;23.65;15.27;;;18.60;70.80;;;;;;4998583;28;20077;-73
2023/05/13 08:39:00;;;;;;;24.10;14.68;;;18.50;68.20;;;;;;5000940;28;20018;-76
2023/05/13 08:41:27;;;;;;;19.85;14.63;;;18.50;68.80;;;;;;5000722;28;20084;-75
2023/05/13 08:43:55;;;;;;;25.65;15.90;;;18.50;67.90;;;;;;5001695;28;20029;-75
2023/05/13 08:46:23;;;;;;;24.90;14.82;;;18.70;69.60;;;;;;5000910;28;20092;-74
2023/05/13 08:48:49;;;;;;;23.42;15.10;;;18.70;69.50;;;;;;5002507;28;20058;-74
2023/05/13 08:51:15;;;;;;;22.70;15.00;;;18.80;67.70;;;;;;4998250;28;20070;-75
2023/05/13 08:53:42;;;;;;;25.77;14.43;;;18.90;68.80;;;;;;5002121;28;20038;-74
2023/05/13 08:56:08;;;;;;;22.48;14.30;;;18.80;68.30;;;;;;5000408;28;20038;-74
2023/05/13 08:58:34;;;;;;;24.60;15.02;;;18.70;69.00;;;;;;5000057;28;20037;-74
2023/05/13 09:01:01;;;;;;;25.05;15.02;;;18.60;69.70;;;;;;4983005;28;20133;-74
2023/05/13 09:03:27;;;;;;;26.20;15.23;;;18.50;69.90;;;;;;4999890;28;20394;-74
2023/05/13 09:05:53;;;;;;;24.25;14.30;;;18.50;70.20;;;;;;5001579;28;20034;-74
2023/05/13 09:08:19;;;;;;;25.17;15.05;;;18.30;69.20;;;;;;5001429;28;20486;-74
2023/05/13 09:10:45;;;;;;;29.70;14.95;;;18.50;70.60;;;;;;5000986;28;20025;-74
2023/05/13 09:13:12;;;;;;;24.33;15.10;;;18.50;70.70;;;;;;5001162;28;20494;-74
2023/05/13 09:15:41;;;;;;;24.05;14.05;;;18.80;69.80;;;;;;5001764;28;20181;-73
2023/05/13 09:18:07;;;;;;;22.63;14.90;;;19.00;70.30;;;;;;5001284;28;20034;-74
2023/05/13 09:20:34;;;;;;;25.88;14.43;;;18.70;68.80;;;;;;5000089;28;20034;-74
2023/05/13 09:23:02;;;;;;;28.85;14.80;;;18.60;69.70;;;;;;5000695;28;20038;-75
2023/05/13 09:25:29;;;;;;;24.83;13.90;;;18.70;69.90;;;;;;5001116;28;20037;-76
2023/05/13 09:28:00;;;;;;;26.70;13.95;;;19.00;68.40;;;;;;5000594;28;20080;-74
2023/05/13 09:30:29;;;;;;;25.08;14.25;;;18.90;68.30;;;;;;4997674;28;20121;-75
2023/05/13 09:33:14;;;;;;;25.52;14.70;;;18.90;70.20;;;;;;5000409;28;20041;-75
2023/05/13 09:35:51;;;;;;;28.73;13.68;;;18.80;69.00;;;;;;5001341;28;20641;-75
2023/05/13 09:38:24;;;;;;;23.63;14.07;;;19.20;69.00;;;;;;5003910;28;20236;-76
2023/05/13 09:40:53;;;;;;;25.85;14.48;;;19.30;68.00;;;;;;5005597;28;20045;-75
2023/05/13 09:43:27;;;;;;;24.05;15.02;;;19.60;69.10;;;;;;4999224;28;20034;-76
2023/05/13 09:45:54;;;;;;;29.08;16.05;;;19.40;69.50;;;;;;5002583;28;20033;-76
2023/05/13 09:48:22;;;;;;;26.77;16.17;;;19.20;71.10;;;;;;5005076;28;20069;-73
2023/05/13 09:50:49;;;;;;;28.13;16.73;;;19.20;70.60;;;;;;4999570;28;20068;-75
2023/05/13 09:53:15;;;;;;;27.02;17.42;;;18.70;70.50;;;;;;4986581;28;20080;-75
2023/05/13 09:55:49;;;;;;;25.35;17.45;;;18.50;72.40;;;;;;5004665;28;20034;-74
2023/05/13 09:58:14;;;;;;;25.55;16.30;;;18.50;72.60;;;;;;5004748;28;20480;-75
2023/05/13 10:00:41;;;;;;;32.83;17.40;;;18.80;72.90;;;;;;5003275;28;20056;-74
2023/05/13 10:03:08;;;;;;;29.58;16.23;;;18.60;72.00;;;;;;5004338;28;20072;-75
2023/05/13 10:05:34;;;;;;;29.08;16.00;;;18.70;72.70;;;;;;5002071;28;20478;-76
2023/05/13 10:08:01;;;;;;;30.40;17.67;;;19.00;71.80;;;;;;5000483;28;20121;-77
2023/05/13 10:10:29;;;;;;;30.73;18.88;;;18.60;71.40;;;;;;5001020;28;20136;-77
2023/05/13 10:13:03;;;;;;;32.60;18.83;;;18.30;72.40;;;;;;4999541;28;20525;-77
2023/05/13 10:15:29;;;;;;;26.70;17.40;;;18.30;73.20;;;;;;5001849;28;20030;-78
2023/05/13 10:17:57;;;;;;;30.70;17.38;;;18.60;73.10;;;;;;5005088;28;20292;-80
2023/05/13 10:20:26;;;;;;;26.65;17.92;;;18.80;71.80;;;;;;5004325;28;20036;-76
2023/05/13 10:22:53;;;;;;;29.55;19.05;;;19.00;71.80;;;;;;5003907;28;20791;-77
2023/05/13 10:25:19;;;;;;;28.77;19.95;;;18.60;72.00;;;;;;5005126;28;20029;-79
2023/05/13 10:27:46;;;;;;;32.78;20.45;;;18.60;73.70;;;;;;4984397;28;20146;-77
2023/05/13 10:30:12;;;;;;;29.50;19.50;;;18.80;71.70;;;;;;5001016;28;20034;-76
2023/05/13 10:32:39;;;;;;;28.67;20.23;;;19.00;72.40;;;;;;5000152;28;20594;-75
2023/05/13 10:35:10;;;;;;;28.60;19.88;;;18.80;71.40;;;;;;5003513;28;20053;-74
2023/05/13 10:38:10;;;;;;;32.08;20.83;;;18.70;72.70;;;;;;5001240;28;20029;-77
2023/05/13 10:41:04;;;;;;;29.90;20.73;;;19.00;71.00;;;;;;5001071;28;20041;-77
2023/05/13 10:43:31;;;;;;;32.70;21.50;;;19.00;72.10;;;;;;4998122;28;20029;-76
2023/05/13 10:45:58;;;;;;;32.40;22.52;;;18.70;71.40;;;;;;5002807;28;20115;-75
2023/05/13 10:48:24;;;;;;;28.90;21.60;;;18.30;73.20;;;;;;4979035;28;20026;-75
2023/05/13 10:51:01;;;;;;;30.00;22.05;;;18.30;73.00;;;;;;5002796;28;20033;-75
2023/05/13 10:53:30;;;;;;;31.17;21.33;;;18.50;72.40;;;;;;5002312;28;20466;-78
2023/05/13 10:55:58;;;;;;;30.42;21.70;;;18.50;72.40;;;;;;5003812;28;20121;-77
2023/05/13 10:58:32;;;;;;;27.63;20.35;;;18.30;73.10;;;;;;5004128;28;20099;-75
2023/05/13 11:01:14;;;;;;;;;;;18.20;72.00;;;;;;5001136;28;20049;-76
2023/05/13 11:03:41;;;;;;;30.48;22.25;;;18.50;72.70;;;;;;5001164;28;19910;-78
2023/05/13 11:06:14;;;;;;;33.55;23.52;;;18.60;71.00;;;;;;5005086;28;20554;-76
2023/05/13 11:08:42;;;;;;;29.13;21.40;;;18.50;72.30;;;;;;4999842;28;20034;-77
2023/05/13 11:11:21;;;;;;;30.25;20.42;;;18.50;72.80;;;;;;4997261;28;20038;-75
2023/05/13 11:14:13;;;;;;;24.52;19.75;;;18.80;72.00;;;;;;4996368;28;20041;-75
2023/05/13 11:17:04;;;;;;;27.33;21.35;;;18.70;71.40;;;;;;5000677;28;20482;-77
2023/05/13 11:19:30;;;;;;;33.22;23.42;;;18.60;70.40;;;;;;4997026;28;20482;-78
2023/05/13 11:22:20;;;;;;;32.72;23.85;;;18.20;72.10;;;;;;4999558;28;20053;-76
2023/05/13 11:25:02;;;;;;;28.05;23.08;;;18.10;73.50;;;;;;4985500;28;20034;-77
2023/05/13 11:27:36;;;;;;;27.60;23.10;;;18.60;72.00;;;;;;5001863;28;20038;-78
2023/05/13 11:30:05;;;;;;;28.27;23.27;;;18.60;71.30;;;;;;4998537;28;20141;-78
2023/05/13 11:32:50;;;;;;;30.65;24.70;;;17.80;72.80;;;;;;4980059;28;20049;-77
2023/05/13 11:35:20;;;;;;;29.67;25.50;;;17.70;74.10;;;;;;4998376;28;20060;-78
2023/05/13 11:37:46;;;;;;;29.17;25.88;;;17.60;74.30;;;;;;4997573;28;20041;-78
2023/05/13 11:40:26;;;;;;;29.17;25.23;;;17.60;74.50;;;;;;5004597;28;20399;-78
2023/05/13 11:42:52;;;;;;;31.02;24.25;;;17.70;74.40;;;;;;5000444;28;20144;-78
2023/05/13 11:45:19;;;;;;;32.10;24.30;;;17.80;73.90;;;;;;5000876;28;20332;-79
2023/05/13 11:47:45;;;;;;;28.90;23.05;;;18.40;72.90;;;;;;5001410;28;20220;-79
2023/05/13 11:50:21;;;;;;;29.90;24.20;;;18.30;72.40;;;;;;4991327;28;20486;-77
2023/05/13 11:52:56;;;;;;;27.77;24.67;;;18.20;72.30;;;;;;4991593;28;20109;-77
2023/05/13 11:55:34;;;;;;;29.17;24.08;;;18.20;71.40;;;;;;4997388;28;20033;-79
2023/05/13 11:58:00;;;;;;;29.48;24.65;;;17.70;73.10;;;;;;5006184;28;20040;-79
2023/05/13 12:00:32;;;;;;;34.55;25.17;;;17.60;73.90;;;;;;5013128;28;20050;-78
2023/05/13 12:02:59;;;;;;;32.83;25.13;;;17.60;74.40;;;;;;5017166;28;20488;-80
2023/05/13 12:05:25;;;;;;;29.48;24.73;;;17.50;74.80;;;;;;5015215;28;20010;-79
2023/05/13 12:07:51;;;;;;;32.33;24.98;;;18.00;74.10;;;;;;5014548;28;20042;-80
2023/05/13 12:10:17;;;;;;;31.88;24.50;;;18.30;73.20;;;;;;5007683;28;20118;-79
2023/05/13 12:12:44;;;;;;;28.13;23.27;;;18.40;73.40;;;;;;5017381;28;20029;-80
2023/05/13 12:15:16;;;;;;;27.67;23.27;;;18.40;71.20;;;;;;5014891;28;20065;-79
2023/05/13 12:17:42;;;;;;;28.80;24.02;;;18.70;72.10;;;;;;4996470;28;20033;-80
2023/05/13 12:20:12;;;;;;;31.08;23.55;;;18.60;70.10;;;;;;5004982;28;20091;-80
2023/05/13 12:22:43;;;;;;;32.80;25.90;;;18.20;71.80;;;;;;4990548;28;20037;-80
2023/05/13 12:25:31;;;;;;;33.50;25.35;;;17.90;72.10;;;;;;4991758;28;20215;-78
2023/05/13 12:28:19;;;;;;;29.15;24.92;;;17.80;73.30;;;;;;5004219;28;20103;-79
2023/05/13 12:30:59;;;;;;;30.02;26.80;;;18.30;73.20;;;;;;5001273;28;20022;-77